UPSVAC Airport Information Service

Honolulu International Airport

ICAO: PHNL Country: United States
Latitude: 21.3187 Longitude: -157.922
Latest Arrival : UPS1257 (KONT-PHNL) Latest Departure : UPS1166 (PHNL-KONT)


WX CaptureLIVE
Data provided by noaa.gov | Fetched at 21:57:34

METAR : PHNL 112053Z 07016G25KT 10SM FEW025 SCT042 SCT055 29/16 A3003

TAF : PHNL 112107Z 1121/1224 07016G24KT P6SM FEW025 SCT040 FM120500 06011KT P6SM SCT025 SCT040 FM122100 05013KT P6SM FEW025 SCT040


Runway Data for PHNL
Data provided by openaviationdata.com

Runway ID Mag Var Hdg Length Elevation Surface ILS Freq ILS Id ILS Slope
04L 11 41° 6958 ft 13 ft Asphalt -- -- --
04R 11 41° 9009 ft 13 ft Asphalt 110.5 IIUM 3
08L 11 79° 12294 ft 13 ft Asphalt 111.7 IHNL 3
08R 11 79° 11995 ft 13 ft Asphalt -- -- --
22L 11 221° 9009 ft 13 ft Asphalt -- -- --
22R 11 221° 6958 ft 13 ft Asphalt -- -- --
26L 11 259° 11995 ft 13 ft Asphalt 109.1 IEPC 0
26R 11 259° 12294 ft 13 ft Asphalt -- -- --

Honolulu International Airport, United States
Use only for reference purposes



Not for navigational purposes.